Little Rock Air Force Base Jacksonville US
ICAO: KLRF
IATA: LRF
Category: Medium
Scheduled Services: No

Elevation: 311 ft
TransAlt. 18000 ft.

Airport Communications:
APP/DEP:119.5
ATIS:25.11
CLNC DEL:25.35
GND:132.8
ANG COMD POST:143.8
PMSV METRO:23.98
COMD POST:34.94
PTD:37.22
TWR:120.6

KLRF Zoom In..

If you have problems with the map follow the link
https://www.worldairports.se/pages/airport.php?
ICAO=KLRF

Runways:

(A) RW 07 length 12000 ft width 200 ft
---- / hdg 70

(B) RW 25 length 12000 ft width 200 ft
ILS 109.90 / hdg 250

Location; KLRF
Day. 29 / Time. 17.12 Zulu
* Altimeter: 30.04
* Temperature: 05° c. 41°f.
* Wind from: 030° Speed 07 kn.
Dewpoint: 04° c.
Visibility: 10 Statute Miles.
Clouds: Overcast 700 ft.

KLRF 291712Z AUTO 03007KT 10SM OVC007 05/04 A3004 RMK AO2 SLP177 $


Wind From 030°
Speed 07 kn.

 
 
jpsmedia worldairports.se 2020   terms of use